Time;durP1;ratioP1;P1;durP2;ratioP2;P2;SDS_P1;SDS_P2;PMS_P1;PMS_P2;Temp;Humidity;BMP_temperature;BMP_pressure;BME280_temperature;BME280_humidity;BME280_pressure;Samples;Min_cycle;Max_cycle;Signal;HPM_P1;HPM_P2
2023/12/21 00:01:44;;;;;;;244.45;104.60;;;5.10;99.90;;;;;;5075194;28;20052;-54
2023/12/21 00:04:10;;;;;;;270.35;107.68;;;5.00;99.90;;;;;;5075287;28;20025;-54
2023/12/21 00:06:36;;;;;;;309.05;111.60;;;4.90;99.90;;;;;;5075192;28;20554;-54
2023/12/21 00:09:02;;;;;;;291.83;108.95;;;5.00;99.90;;;;;;5075264;28;20036;-54
2023/12/21 00:11:28;;;;;;;308.15;110.53;;;5.00;99.90;;;;;;5075216;28;20032;-54
2023/12/21 00:13:54;;;;;;;234.35;98.80;;;5.10;99.90;;;;;;5075145;28;20581;-54
2023/12/21 00:16:20;;;;;;;217.18;91.88;;;5.10;99.90;;;;;;5075075;28;20025;-54
2023/12/21 00:18:45;;;;;;;211.75;95.20;;;5.00;99.90;;;;;;5075143;28;20020;-54
2023/12/21 00:21:11;;;;;;;257.83;115.68;;;5.00;99.90;;;;;;5075207;28;20024;-54
2023/12/21 00:23:37;;;;;;;229.63;105.35;;;5.00;99.90;;;;;;5075125;28;20029;-54
2023/12/21 00:26:03;;;;;;;243.75;103.22;;;4.90;99.90;;;;;;5075279;28;20046;-54
2023/12/21 00:28:29;;;;;;;383.20;132.82;;;4.80;99.90;;;;;;5075268;28;20017;-54
2023/12/21 00:30:55;;;;;;;554.67;174.85;;;4.80;99.90;;;;;;5074977;28;20024;-54
2023/12/21 00:33:21;;;;;;;318.50;125.00;;;4.90;99.90;;;;;;5075288;28;20031;-54
2023/12/21 00:35:46;;;;;;;340.27;127.28;;;4.80;99.90;;;;;;5074908;28;20074;-54
2023/12/21 00:38:12;;;;;;;277.27;113.40;;;4.80;99.90;;;;;;5074710;28;20029;-54
2023/12/21 00:40:38;;;;;;;237.35;111.15;;;4.80;99.90;;;;;;5074922;28;20079;-54
2023/12/21 00:43:04;;;;;;;263.42;115.55;;;4.80;99.90;;;;;;5075443;28;20082;-54
2023/12/21 00:45:30;;;;;;;248.45;106.97;;;4.80;99.90;;;;;;5078651;28;20367;-54
2023/12/21 00:47:56;;;;;;;274.58;114.53;;;4.70;99.90;;;;;;5078463;28;20385;-54
2023/12/21 00:50:22;;;;;;;356.13;128.70;;;4.70;99.90;;;;;;5078693;28;20031;-54
2023/12/21 00:52:48;;;;;;;340.42;130.95;;;4.70;99.90;;;;;;5078322;28;20505;-54
2023/12/21 00:55:14;;;;;;;313.77;124.55;;;4.60;99.90;;;;;;5078348;28;20031;-54
2023/12/21 00:57:40;;;;;;;291.23;118.68;;;4.70;99.90;;;;;;5078433;28;20021;-54
2023/12/21 01:00:06;;;;;;;290.98;118.15;;;4.70;99.90;;;;;;5078366;28;20024;-54
2023/12/21 01:02:32;;;;;;;287.13;118.18;;;4.80;99.90;;;;;;5078357;28;20039;-54
2023/12/21 01:04:58;;;;;;;270.98;117.55;;;4.80;99.90;;;;;;5078343;28;20107;-54
2023/12/21 01:07:24;;;;;;;298.73;133.30;;;4.80;99.90;;;;;;5078242;28;20435;-54
2023/12/21 01:09:49;;;;;;;306.13;128.70;;;4.70;99.90;;;;;;5078063;28;20052;-54
2023/12/21 01:12:15;;;;;;;288.05;127.85;;;4.60;99.90;;;;;;5078182;28;20116;-54
2023/12/21 01:14:41;;;;;;;310.70;133.10;;;4.70;99.90;;;;;;5078244;28;20351;-54
2023/12/21 01:17:07;;;;;;;299.80;134.50;;;4.60;99.90;;;;;;5077960;28;20032;-54
2023/12/21 01:19:33;;;;;;;298.80;129.88;;;4.60;99.90;;;;;;5078144;28;20146;-54
2023/12/21 01:21:59;;;;;;;295.90;130.70;;;4.60;99.90;;;;;;5077777;28;20108;-54
2023/12/21 01:24:25;;;;;;;283.40;122.70;;;4.60;99.90;;;;;;5078018;28;20028;-54
2023/12/21 01:26:51;;;;;;;301.85;132.27;;;4.60;99.90;;;;;;5077850;28;20029;-54
2023/12/21 01:29:17;;;;;;;310.27;140.32;;;4.80;99.90;;;;;;5078006;28;20382;-54
2023/12/21 01:31:43;;;;;;;307.50;141.00;;;4.80;99.90;;;;;;5077868;28;20025;-54
2023/12/21 01:34:09;;;;;;;296.52;135.43;;;4.70;99.90;;;;;;5077775;28;20040;-54
2023/12/21 01:36:35;;;;;;;250.95;112.07;;;4.60;99.90;;;;;;5077524;28;20028;-54
2023/12/21 01:39:00;;;;;;;460.20;169.82;;;4.50;99.90;;;;;;5077763;28;20416;-54
2023/12/21 01:41:26;;;;;;;647.30;250.43;;;4.60;99.90;;;;;;5077813;28;20037;-54
2023/12/21 01:43:53;;;;;;;566.03;212.50;;;4.60;99.90;;;;;;5077854;28;20551;-54
2023/12/21 01:46:20;;;;;;;522.13;193.32;;;4.50;99.90;;;;;;5077559;28;20020;-54
2023/12/21 01:48:46;;;;;;;515.05;201.95;;;4.50;99.90;;;;;;5077512;28;20032;-54
2023/12/21 01:51:12;;;;;;;454.63;176.45;;;4.50;99.90;;;;;;5077496;28;20463;-54
2023/12/21 01:53:40;;;;;;;402.58;165.18;;;4.50;99.90;;;;;;5077042;28;20460;-54
2023/12/21 01:56:06;;;;;;;443.02;183.93;;;4.50;99.90;;;;;;5077216;28;20028;-54
2023/12/21 01:58:33;;;;;;;436.88;182.15;;;4.50;99.90;;;;;;5077396;28;20103;-54
2023/12/21 02:00:59;;;;;;;439.73;179.77;;;4.40;99.90;;;;;;5077377;28;20029;-54
2023/12/21 02:03:28;;;;;;;695.13;266.30;;;4.40;99.90;;;;;;5077242;28;20021;-54
2023/12/21 02:05:54;;;;;;;1025.28;380.63;;;4.20;99.90;;;;;;5077131;28;20028;-54
2023/12/21 02:08:20;;;;;;;648.15;240.90;;;4.20;99.90;;;;;;5077172;28;20028;-54
2023/12/21 02:10:46;;;;;;;574.88;217.70;;;4.20;99.90;;;;;;5077250;28;20039;-54
2023/12/21 02:13:12;;;;;;;503.25;188.90;;;4.10;99.90;;;;;;5077116;28;20111;-54
2023/12/21 02:15:38;;;;;;;441.30;167.18;;;4.10;99.90;;;;;;5077189;28;20032;-54
2023/12/21 02:18:07;;;;;;;367.67;150.85;;;4.10;99.90;;;;;;5076870;28;20028;-54
2023/12/21 02:20:34;;;;;;;304.92;130.38;;;3.90;99.90;;;;;;5076835;28;20028;-54
2023/12/21 02:23:03;;;;;;;251.77;112.20;;;3.80;99.90;;;;;;5076785;28;20036;-54
2023/12/21 02:25:31;;;;;;;256.40;110.85;;;3.80;99.90;;;;;;5076917;28;20416;-54
2023/12/21 02:27:56;;;;;;;322.48;128.65;;;3.70;99.90;;;;;;5076733;28;20481;-54
2023/12/21 02:30:22;;;;;;;323.85;127.43;;;3.60;99.90;;;;;;5076721;28;20107;-54
2023/12/21 02:32:48;;;;;;;422.80;159.00;;;3.70;99.90;;;;;;5076625;28;20072;-54
2023/12/21 02:35:15;;;;;;;412.75;156.00;;;3.60;99.90;;;;;;5076551;28;20033;-54
2023/12/21 02:37:41;;;;;;;394.08;147.80;;;3.80;99.90;;;;;;5076437;28;20036;-54
2023/12/21 02:40:07;;;;;;;373.63;146.85;;;3.90;99.90;;;;;;5076552;28;20033;-54
2023/12/21 02:42:33;;;;;;;298.80;128.52;;;4.00;99.90;;;;;;5074471;28;20069;-54
2023/12/21 02:44:59;;;;;;;292.45;123.70;;;4.00;99.90;;;;;;5076269;28;20487;-54
2023/12/21 02:47:25;;;;;;;272.38;119.00;;;4.00;99.90;;;;;;5076249;28;20118;-54
2023/12/21 02:49:51;;;;;;;247.30;109.93;;;4.10;99.90;;;;;;5076278;28;20028;-54
2023/12/21 02:52:16;;;;;;;233.63;104.72;;;4.00;99.90;;;;;;5076281;28;20504;-54
2023/12/21 02:54:42;;;;;;;249.73;107.03;;;4.00;99.90;;;;;;5075892;28;20028;-54
2023/12/21 02:57:08;;;;;;;304.38;118.38;;;4.10;99.90;;;;;;5076022;28;20085;-54
2023/12/21 02:59:34;;;;;;;301.60;121.07;;;4.00;99.90;;;;;;5076228;28;20508;-54
2023/12/21 03:02:00;;;;;;;295.55;120.10;;;4.00;99.90;;;;;;5076016;28;20030;-54
2023/12/21 03:04:26;;;;;;;261.83;110.45;;;4.00;99.90;;;;;;5075965;28;20024;-54
2023/12/21 03:06:51;;;;;;;225.40;100.78;;;3.90;99.90;;;;;;5075260;28;20385;-54
2023/12/21 03:09:18;;;;;;;219.02;95.22;;;3.90;99.90;;;;;;5075987;28;20039;-54
2023/12/21 03:11:44;;;;;;;195.73;91.03;;;3.90;99.90;;;;;;5075949;28;20060;-54
2023/12/21 03:14:09;;;;;;;216.55;96.40;;;3.90;99.90;;;;;;5075732;28;20037;-54
2023/12/21 03:16:35;;;;;;;209.40;92.22;;;3.80;99.90;;;;;;5075747;28;20021;-54
2023/12/21 03:19:01;;;;;;;237.90;101.13;;;3.70;99.90;;;;;;5075823;28;20024;-54
2023/12/21 03:21:27;;;;;;;219.18;94.57;;;3.80;99.90;;;;;;5075789;28;20031;-54
2023/12/21 03:23:53;;;;;;;209.65;96.65;;;3.80;99.90;;;;;;5075730;28;20107;-54
2023/12/21 03:26:19;;;;;;;225.88;99.97;;;3.90;99.90;;;;;;5075759;28;20414;-54
2023/12/21 03:28:45;;;;;;;217.15;96.22;;;4.00;99.90;;;;;;5075655;28;20090;-54
2023/12/21 03:31:11;;;;;;;206.23;94.97;;;4.10;99.90;;;;;;5075682;28;20052;-54
2023/12/21 03:33:37;;;;;;;204.63;93.50;;;4.10;99.90;;;;;;5075721;28;20027;-54
2023/12/21 03:36:04;;;;;;;187.43;87.28;;;4.10;99.90;;;;;;5075439;28;20035;-54
2023/12/21 03:38:29;;;;;;;188.93;88.72;;;4.10;99.90;;;;;;5075475;28;20103;-54
2023/12/21 03:40:55;;;;;;;199.50;96.55;;;4.10;99.90;;;;;;5075736;28;20029;-54
2023/12/21 03:43:21;;;;;;;239.10;110.82;;;4.00;99.90;;;;;;5075277;28;20085;-54
2023/12/21 03:45:47;;;;;;;236.45;106.80;;;4.00;99.90;;;;;;5075460;28;20367;-54
2023/12/21 03:48:13;;;;;;;212.15;99.50;;;3.90;99.90;;;;;;5075346;28;20032;-54
2023/12/21 03:50:39;;;;;;;203.52;98.82;;;3.90;99.90;;;;;;5075279;28;20375;-54
2023/12/21 03:53:07;;;;;;;192.98;95.18;;;3.80;99.90;;;;;;5075424;28;20114;-54
2023/12/21 03:55:33;;;;;;;203.65;95.00;;;3.80;99.90;;;;;;5075211;28;20393;-54
2023/12/21 03:57:59;;;;;;;202.07;94.28;;;3.80;99.90;;;;;;5075322;28;20024;-54
2023/12/21 04:00:25;;;;;;;219.05;97.10;;;3.70;99.90;;;;;;5075519;28;20041;-54
2023/12/21 04:02:51;;;;;;;241.75;104.18;;;3.70;99.90;;;;;;5075344;28;20032;-54
2023/12/21 04:05:17;;;;;;;244.73;106.35;;;3.80;99.90;;;;;;5075147;28;20094;-54
2023/12/21 04:07:43;;;;;;;251.73;109.60;;;3.80;99.90;;;;;;5075224;28;20039;-54
2023/12/21 04:10:09;;;;;;;224.30;101.88;;;3.80;99.90;;;;;;5075263;28;20036;-54
2023/12/21 04:12:35;;;;;;;175.32;80.03;;;3.70;99.90;;;;;;5075157;28;20035;-54
2023/12/21 04:15:01;;;;;;;165.73;76.47;;;3.80;99.90;;;;;;5075116;28;20040;-54
2023/12/21 04:17:27;;;;;;;147.38;69.82;;;3.80;99.90;;;;;;5076228;28;20021;-54
2023/12/21 04:19:52;;;;;;;157.20;72.38;;;3.80;99.90;;;;;;5079078;28;20042;-54
2023/12/21 04:22:18;;;;;;;143.27;66.80;;;3.80;99.90;;;;;;5079168;28;20378;-54
2023/12/21 04:24:44;;;;;;;134.43;65.07;;;3.70;99.90;;;;;;5079158;28;20481;-54
2023/12/21 04:27:11;;;;;;;133.75;63.65;;;3.70;99.90;;;;;;5079077;28;20031;-54
2023/12/21 04:29:39;;;;;;;128.95;63.15;;;3.70;99.90;;;;;;5079113;28;20036;-54
2023/12/21 04:32:06;;;;;;;177.45;85.75;;;3.80;99.90;;;;;;5079466;28;20024;-54
2023/12/21 04:34:32;;;;;;;194.68;95.70;;;3.90;99.90;;;;;;5078766;28;20024;-54
2023/12/21 04:36:58;;;;;;;175.00;87.30;;;4.00;99.90;;;;;;5078789;28;20458;-54
2023/12/21 04:39:24;;;;;;;168.75;83.70;;;4.00;99.90;;;;;;5078860;28;20016;-54
2023/12/21 04:41:50;;;;;;;164.93;80.78;;;4.10;99.90;;;;;;5078651;28;20024;-54
2023/12/21 04:44:16;;;;;;;138.32;68.90;;;4.20;99.90;;;;;;5078656;28;20029;-54
2023/12/21 04:46:47;;;;;;;138.63;67.18;;;4.30;99.90;;;;;;5078675;28;20032;-54
2023/12/21 04:49:14;;;;;;;131.65;65.07;;;4.30;99.90;;;;;;5078517;28;20131;-54
2023/12/21 04:51:40;;;;;;;130.57;65.18;;;4.40;99.90;;;;;;5078628;28;20041;-54
2023/12/21 04:54:06;;;;;;;120.78;61.97;;;4.40;99.90;;;;;;5078476;28;20028;-54
2023/12/21 04:56:32;;;;;;;122.43;61.33;;;4.40;99.90;;;;;;5078652;28;20464;-54
2023/12/21 04:58:57;;;;;;;115.95;57.13;;;4.40;99.90;;;;;;5078401;28;20384;-54
2023/12/21 05:01:23;;;;;;;117.93;58.90;;;4.30;99.90;;;;;;5078329;28;20036;-54
2023/12/21 05:03:50;;;;;;;110.88;58.88;;;4.30;99.90;;;;;;5078341;28;20378;-54
2023/12/21 05:06:16;;;;;;;109.05;54.53;;;4.30;99.90;;;;;;5078231;28;20033;-54
2023/12/21 05:08:42;;;;;;;104.22;53.30;;;4.40;99.90;;;;;;5078233;28;20371;-54
2023/12/21 05:11:07;;;;;;;105.40;50.65;;;4.20;99.90;;;;;;5078719;28;20029;-54
2023/12/21 05:13:33;;;;;;;95.32;47.58;;;4.30;99.90;;;;;;5077997;28;20020;-54
2023/12/21 05:16:00;;;;;;;105.22;50.30;;;4.40;99.90;;;;;;5078025;28;20082;-54
2023/12/21 05:18:25;;;;;;;102.95;52.22;;;4.30;99.90;;;;;;5077836;28;20028;-54
2023/12/21 05:20:51;;;;;;;113.70;54.67;;;4.30;99.90;;;;;;5078125;28;20025;-54
2023/12/21 05:23:17;;;;;;;106.05;53.65;;;4.20;99.90;;;;;;5078024;28;20051;-54
2023/12/21 05:25:43;;;;;;;94.85;48.40;;;4.20;99.90;;;;;;5078024;28;20052;-54
2023/12/21 05:28:12;;;;;;;99.65;50.05;;;4.20;99.90;;;;;;5077917;28;20115;-54
2023/12/21 05:30:38;;;;;;;95.93;48.63;;;4.30;99.90;;;;;;5076993;28;20111;-54
2023/12/21 05:33:04;;;;;;;108.18;52.30;;;4.30;99.90;;;;;;5077812;28;20512;-54
2023/12/21 05:35:30;;;;;;;108.38;51.60;;;4.30;99.90;;;;;;5077748;28;20093;-54
2023/12/21 05:37:56;;;;;;;134.07;65.45;;;4.20;99.90;;;;;;5077661;28;20029;-54
2023/12/21 05:40:22;;;;;;;143.82;67.60;;;4.30;99.90;;;;;;5078019;28;20027;-54
2023/12/21 05:42:48;;;;;;;141.32;66.93;;;4.30;99.90;;;;;;5077536;28;20024;-54
2023/12/21 05:45:14;;;;;;;105.28;51.55;;;4.40;99.90;;;;;;5077340;28;20043;-54
2023/12/21 05:47:40;;;;;;;104.70;49.92;;;4.40;99.90;;;;;;5077509;28;20467;-54
2023/12/21 05:50:07;;;;;;;94.60;48.42;;;4.40;99.90;;;;;;5077325;28;20509;-54
2023/12/21 05:52:33;;;;;;;91.70;47.80;;;4.30;99.90;;;;;;5077418;28;20474;-54
2023/12/21 05:54:59;;;;;;;96.75;48.30;;;4.30;99.90;;;;;;5077509;28;20032;-54
2023/12/21 05:57:25;;;;;;;95.40;49.50;;;4.30;99.90;;;;;;5077250;28;20035;-54
2023/12/21 05:59:51;;;;;;;101.47;48.40;;;4.30;99.90;;;;;;5077228;28;20020;-54
2023/12/21 06:02:17;;;;;;;99.18;51.55;;;4.30;99.90;;;;;;5077263;28;20040;-54
2023/12/21 06:04:43;;;;;;;100.13;50.97;;;4.30;99.90;;;;;;5077189;28;20119;-54
2023/12/21 06:07:09;;;;;;;100.30;51.75;;;4.20;99.90;;;;;;5077336;28;20029;-54
2023/12/21 06:09:34;;;;;;;108.35;52.85;;;4.20;99.90;;;;;;5077205;28;20043;-54
2023/12/21 06:12:01;;;;;;;113.57;60.22;;;4.20;99.90;;;;;;5076953;28;20604;-54
2023/12/21 06:14:26;;;;;;;131.55;65.38;;;4.10;99.90;;;;;;5076853;28;20028;-54
2023/12/21 06:16:52;;;;;;;127.50;65.22;;;4.10;99.90;;;;;;5076714;28;20028;-54
2023/12/21 06:19:18;;;;;;;120.90;60.90;;;4.10;99.90;;;;;;5076891;28;20505;-54
2023/12/21 06:21:44;;;;;;;105.00;53.45;;;4.10;99.90;;;;;;5075335;28;20077;-54
2023/12/21 06:24:10;;;;;;;103.88;50.45;;;4.20;99.90;;;;;;5069238;28;20037;-54
2023/12/21 06:26:42;;;;;;;97.40;51.45;;;4.10;99.90;;;;;;5073432;28;20090;-54
2023/12/21 06:29:09;;;;;;;107.00;50.92;;;4.10;99.90;;;;;;5076001;28;20103;-54
2023/12/21 06:31:35;;;;;;;99.97;51.50;;;4.00;99.90;;;;;;5075054;28;20482;-54
2023/12/21 06:34:01;;;;;;;116.82;54.88;;;4.00;99.90;;;;;;5076198;28;20078;-54
2023/12/21 06:36:27;;;;;;;130.93;61.40;;;4.00;99.90;;;;;;5076426;28;20025;-54
2023/12/21 06:38:53;;;;;;;136.20;65.95;;;3.90;99.90;;;;;;5074736;28;20037;-54
2023/12/21 06:41:18;;;;;;;148.05;69.80;;;3.90;99.90;;;;;;5074284;28;20024;-54
2023/12/21 06:43:44;;;;;;;139.35;67.45;;;3.80;99.90;;;;;;5075037;28;20025;-54
2023/12/21 06:46:13;;;;;;;149.68;71.43;;;3.80;99.90;;;;;;5075434;28;20526;-54
2023/12/21 06:48:41;;;;;;;165.77;78.22;;;3.70;99.90;;;;;;5074946;28;20033;-54
2023/12/21 06:51:08;;;;;;;220.15;111.22;;;3.70;99.90;;;;;;5075058;28;20040;-54
2023/12/21 06:53:33;;;;;;;202.18;98.75;;;3.70;99.90;;;;;;5074396;28;20040;-54
2023/12/21 06:56:00;;;;;;;184.50;91.85;;;3.60;99.90;;;;;;5074708;28;20390;-54
2023/12/21 06:58:27;;;;;;;180.68;87.20;;;3.60;99.90;;;;;;5075237;28;20036;-54
2023/12/21 07:00:54;;;;;;;154.25;69.95;;;3.60;99.90;;;;;;5075401;28;20055;-54
2023/12/21 07:03:22;;;;;;;147.55;65.55;;;3.50;99.90;;;;;;5079507;28;20059;-54
2023/12/21 07:05:50;;;;;;;137.75;67.70;;;3.30;99.90;;;;;;5074746;28;20086;-54
2023/12/21 07:08:17;;;;;;;153.68;73.63;;;3.20;99.90;;;;;;5073811;28;20122;-54
2023/12/21 07:10:43;;;;;;;168.93;75.47;;;3.20;99.90;;;;;;5075629;28;20451;-54
2023/12/21 07:13:10;;;;;;;155.73;75.55;;;3.20;99.90;;;;;;5074452;28;20222;-54
2023/12/21 07:15:36;;;;;;;170.65;80.57;;;3.20;99.90;;;;;;5073961;28;20031;-54
2023/12/21 07:18:02;;;;;;;188.23;86.32;;;3.20;99.90;;;;;;5073729;28;20063;-54
2023/12/21 07:20:30;;;;;;;169.32;73.03;;;3.40;99.90;;;;;;5074584;28;20102;-54
2023/12/21 07:22:57;;;;;;;180.68;75.60;;;3.60;99.90;;;;;;5073869;28;20031;-54
2023/12/21 07:25:23;;;;;;;169.07;73.13;;;4.00;99.90;;;;;;5074856;28;20028;-54
2023/12/21 07:27:49;;;;;;;179.85;66.53;;;4.60;99.90;;;;;;5073804;28;20033;-54
2023/12/21 07:30:16;;;;;;;181.77;75.32;;;5.60;99.90;;;;;;5075316;28;20102;-54
2023/12/21 07:36:31;;;;;;;172.98;68.28;;;7.20;99.90;;;;;;5062766;28;20082;-54
2023/12/21 07:38:57;;;;;;;177.35;69.07;;;9.00;97.40;;;;;;5085986;28;20052;-54
2023/12/21 07:41:22;;;;;;;168.68;69.43;;;9.40;93.60;;;;;;5075653;27;20053;-54
2023/12/21 07:43:48;;;;;;;177.35;68.60;;;9.10;93.80;;;;;;5075064;28;20378;-54
2023/12/21 07:46:14;;;;;;;169.77;69.13;;;9.70;92.40;;;;;;5073769;27;20044;-54
2023/12/21 07:48:40;;;;;;;174.18;67.97;;;9.60;91.50;;;;;;5074244;28;20032;-54
2023/12/21 07:51:08;;;;;;;174.00;69.60;;;8.70;92.30;;;;;;5073969;28;20036;-54
2023/12/21 07:53:34;;;;;;;174.55;72.55;;;8.20;93.40;;;;;;5071631;28;20032;-54
2023/12/21 07:56:02;;;;;;;168.05;76.13;;;8.20;94.70;;;;;;5075601;28;20029;-54
2023/12/21 07:58:28;;;;;;;166.43;73.95;;;9.00;94.10;;;;;;5074506;28;20082;-55
2023/12/21 08:00:55;;;;;;;167.20;76.20;;;10.40;90.70;;;;;;5073624;28;20061;-54
2023/12/21 08:03:22;;;;;;;179.52;81.55;;;11.00;87.00;;;;;;5074387;28;20029;-54
2023/12/21 08:05:47;;;;;;;163.05;77.32;;;10.70;86.10;;;;;;5074609;28;20021;-54
2023/12/21 08:08:13;;;;;;;163.43;77.13;;;10.70;86.10;;;;;;5074288;27;20107;-55
2023/12/21 08:10:45;;;;;;;177.43;88.00;;;11.40;82.40;;;;;;5074450;28;20143;-54
2023/12/21 08:17:09;;;;;;;263.55;121.47;;;13.60;72.70;;;;;;5066134;28;20504;-54
2023/12/21 08:19:37;;;;;;;248.77;120.13;;;14.00;66.00;;;;;;5072756;27;20044;-55
2023/12/21 08:22:03;;;;;;;295.52;133.65;;;14.60;60.50;;;;;;5053558;28;20100;-54
2023/12/21 08:24:29;;;;;;;327.35;143.93;;;14.60;58.80;;;;;;5070138;28;20020;-55
2023/12/21 08:26:55;;;;;;;326.52;143.85;;;15.50;57.20;;;;;;5074377;28;20029;-55
2023/12/21 08:29:21;;;;;;;272.88;122.85;;;15.60;55.10;;;;;;5073455;28;20017;-55
2023/12/21 08:31:47;;;;;;;226.95;108.03;;;15.60;52.60;;;;;;5075061;28;20024;-55
2023/12/21 08:34:13;;;;;;;245.38;116.97;;;16.00;51.50;;;;;;5075288;28;20071;-55
2023/12/21 08:36:39;;;;;;;242.27;117.30;;;16.80;49.10;;;;;;5074184;27;20090;-55
2023/12/21 08:39:05;;;;;;;223.63;111.43;;;16.00;50.50;;;;;;5075292;28;20470;-55
2023/12/21 08:41:31;;;;;;;220.23;109.15;;;16.80;48.80;;;;;;5074685;28;20130;-55
2023/12/21 08:43:57;;;;;;;205.30;104.82;;;17.20;45.90;;;;;;5074572;28;20021;-55
2023/12/21 08:46:23;;;;;;;212.80;109.75;;;17.40;45.60;;;;;;5075081;28;20036;-55
2023/12/21 08:48:48;;;;;;;213.60;109.00;;;17.80;43.50;;;;;;5075060;28;20040;-55
2023/12/21 08:51:16;;;;;;;208.95;101.63;;;16.60;42.90;;;;;;5074621;28;20028;-55
2023/12/21 08:53:44;;;;;;;195.32;102.45;;;16.80;45.80;;;;;;5074900;28;20055;-55
2023/12/21 08:56:10;;;;;;;197.23;102.70;;;17.60;42.20;;;;;;5074343;28;20028;-55
2023/12/21 08:58:36;;;;;;;192.35;103.60;;;17.50;42.30;;;;;;5086632;28;20111;-55
2023/12/21 09:01:03;;;;;;;194.55;103.60;;;17.10;42.30;;;;;;5059219;22;20082;-58
2023/12/21 09:03:29;;;;;;;220.23;111.80;;;16.50;43.10;;;;;;5013249;28;20030;-58
2023/12/21 09:05:54;;;;;;;223.13;114.93;;;17.30;42.80;;;;;;5017779;28;20060;-58
2023/12/21 09:08:20;;;;;;;232.45;115.93;;;16.50;42.80;;;;;;5018530;28;20036;-59
2023/12/21 09:10:46;;;;;;;187.85;100.90;;;17.20;43.70;;;;;;5018031;28;20049;-58
2023/12/21 09:13:12;;;;;;;174.55;91.82;;;18.10;40.60;;;;;;5017770;28;20038;-58
2023/12/21 09:15:38;;;;;;;173.32;95.63;;;18.30;37.80;;;;;;5143436;23;20402;-57
2023/12/21 09:18:06;;;;;;;195.88;98.30;;;18.20;38.30;;;;;;5021303;28;20509;-57
2023/12/21 09:20:32;;;;;;;140.70;81.05;;;17.90;39.20;;;;;;5020136;28;20027;-57
2023/12/21 09:22:58;;;;;;;154.07;79.50;;;16.70;39.60;;;;;;5015448;28;20466;-57
2023/12/21 09:25:24;;;;;;;135.48;73.53;;;17.30;39.20;;;;;;5016325;28;20034;-58
2023/12/21 09:27:50;;;;;;;150.25;71.88;;;17.40;39.90;;;;;;5016234;28;20391;-57
2023/12/21 09:30:17;;;;;;;120.90;67.90;;;17.90;38.00;;;;;;5014705;28;20172;-58
2023/12/21 09:32:45;;;;;;;120.47;64.07;;;18.10;37.00;;;;;;5012270;28;20042;-58
2023/12/21 09:35:11;;;;;;;126.63;62.13;;;18.80;35.70;;;;;;5007288;28;20030;-57
2023/12/21 09:37:37;;;;;;;93.82;51.30;;;18.10;35.80;;;;;;5008770;28;20041;-57
2023/12/21 09:40:03;;;;;;;90.70;47.15;;;19.30;32.90;;;;;;5017183;28;20022;-58
2023/12/21 09:42:30;;;;;;;58.45;31.02;;;19.00;33.80;;;;;;5016828;28;20038;-57
2023/12/21 09:44:56;;;;;;;70.05;37.15;;;19.30;32.20;;;;;;5016743;28;20048;-58
2023/12/21 09:47:29;;;;;;;74.65;36.53;;;19.00;31.80;;;;;;5015242;28;20030;-58
2023/12/21 09:49:56;;;;;;;63.15;35.35;;;19.50;30.40;;;;;;5014521;28;20037;-58
2023/12/21 09:52:22;;;;;;;72.35;35.88;;;19.40;29.80;;;;;;5012802;28;20098;-58
2023/12/21 09:54:51;;;;;;;78.68;35.88;;;19.50;30.00;;;;;;5020102;28;20048;-58
2023/12/21 09:57:18;;;;;;;60.22;35.88;;;20.20;29.40;;;;;;5037147;28;20057;-58
2023/12/21 09:59:44;;;;;;;91.57;38.90;;;19.70;29.50;;;;;;5036949;28;20079;-58
2023/12/21 10:02:13;;;;;;;81.72;35.38;;;19.40;30.40;;;;;;5019195;28;20433;-58
2023/12/21 10:04:43;;;;;;;77.93;36.67;;;20.10;30.10;;;;;;5015457;28;20046;-58
2023/12/21 10:07:12;;;;;;;70.13;36.55;;;20.50;28.70;;;;;;5014269;28;20033;-58
2023/12/21 10:09:38;;;;;;;54.35;32.05;;;20.10;29.50;;;;;;5012592;28;20031;-58
2023/12/21 10:12:06;;;;;;;46.80;28.88;;;20.00;28.00;;;;;;5005198;28;20398;-58
2023/12/21 10:14:31;;;;;;;53.45;28.90;;;20.40;27.80;;;;;;4994711;28;20418;-58
2023/12/21 10:16:58;;;;;;;41.30;24.13;;;19.90;27.60;;;;;;5011659;28;20038;-58
2023/12/21 10:19:25;;;;;;;51.40;26.42;;;19.90;27.50;;;;;;5003921;28;20100;-58
2023/12/21 10:21:52;;;;;;;54.55;27.23;;;20.10;27.70;;;;;;5011792;28;20030;-58
2023/12/21 10:24:18;;;;;;;41.33;21.83;;;20.50;26.90;;;;;;5015379;28;20034;-58
2023/12/21 10:26:46;;;;;;;42.13;21.48;;;21.40;25.60;;;;;;5013447;28;20544;-58
2023/12/21 10:29:16;;;;;;;36.90;18.08;;;21.00;26.80;;;;;;5016379;28;20030;-58
2023/12/21 10:31:46;;;;;;;27.17;15.48;;;22.10;25.60;;;;;;5015727;28;20349;-58
2023/12/21 10:34:12;;;;;;;43.65;18.95;;;21.60;23.40;;;;;;5013514;28;20030;-58
2023/12/21 10:36:43;;;;;;;46.38;18.85;;;20.20;24.90;;;;;;5005241;28;20058;-58
2023/12/21 10:39:11;;;;;;;40.35;20.35;;;20.60;25.30;;;;;;4996888;28;20026;-58
2023/12/21 10:41:39;;;;;;;32.33;18.48;;;20.30;26.40;;;;;;4996286;28;20065;-58
2023/12/21 10:44:05;;;;;;;26.65;16.75;;;21.10;25.30;;;;;;5000141;28;20045;-58
2023/12/21 10:46:31;;;;;;;34.53;15.38;;;21.50;24.20;;;;;;5011574;28;20034;-58
2023/12/21 10:49:01;;;;;;;18.38;12.10;;;20.80;24.50;;;;;;5015403;28;20068;-58
2023/12/21 10:51:30;;;;;;;16.73;10.25;;;21.00;23.40;;;;;;5016957;28;20140;-58
2023/12/21 10:54:02;;;;;;;15.43;9.45;;;20.20;25.00;;;;;;5034256;28;20486;-58
2023/12/21 10:56:28;;;;;;;14.90;10.25;;;19.40;23.90;;;;;;5018854;28;20125;-58
2023/12/21 10:58:56;;;;;;;20.33;11.27;;;18.60;25.90;;;;;;5016814;28;20483;-58
2023/12/21 11:01:24;;;;;;;20.85;11.43;;;20.20;25.20;;;;;;5033874;28;20045;-58
2023/12/21 11:03:52;;;;;;;17.55;10.20;;;21.00;23.20;;;;;;5034569;28;20025;-58
2023/12/21 11:06:19;;;;;;;24.60;11.75;;;21.30;22.70;;;;;;5015801;28;20632;-58
2023/12/21 11:08:46;;;;;;;21.50;9.93;;;21.40;23.90;;;;;;5016198;28;20076;-58
2023/12/21 11:11:15;;;;;;;18.48;9.27;;;21.30;21.70;;;;;;5016389;28;20044;-58
2023/12/21 11:13:44;;;;;;;19.10;10.27;;;20.70;22.70;;;;;;5015484;28;20037;-58
2023/12/21 11:16:13;;;;;;;19.85;11.18;;;21.50;22.00;;;;;;5016380;28;20030;-58
2023/12/21 11:18:43;;;;;;;35.83;11.98;;;21.10;22.20;;;;;;5016280;28;20463;-58
2023/12/21 11:21:11;;;;;;;26.13;11.38;;;21.50;22.80;;;;;;5016112;28;20026;-58
2023/12/21 11:23:43;;;;;;;19.38;10.40;;;21.50;21.20;;;;;;5016519;28;20068;-58
2023/12/21 11:26:09;;;;;;;23.10;10.57;;;21.20;21.30;;;;;;5014632;28;20112;-58
2023/12/21 11:28:35;;;;;;;17.70;9.02;;;21.80;21.30;;;;;;5026413;28;20029;-58
2023/12/21 11:31:14;;;;;;;22.90;10.10;;;22.00;20.00;;;;;;5031792;28;20163;-58
2023/12/21 11:33:40;;;;;;;28.38;11.20;;;22.00;19.00;;;;;;5010408;28;20023;-58
2023/12/21 11:36:07;;;;;;;17.88;9.27;;;21.10;21.20;;;;;;5004136;28;20034;-58
2023/12/21 11:38:47;;;;;;;16.23;9.52;;;22.00;21.00;;;;;;5007998;28;20022;-58
2023/12/21 11:41:15;;;;;;;25.30;11.07;;;22.00;20.10;;;;;;5015977;28;20030;-58
2023/12/21 11:44:11;;;;;;;19.48;9.70;;;21.70;20.90;;;;;;5013683;28;20391;-58
2023/12/21 11:46:38;;;;;;;37.63;11.75;;;21.10;20.70;;;;;;5013507;28;20032;-58
2023/12/21 11:49:04;;;;;;;13.25;8.05;;;21.90;20.40;;;;;;4998403;28;20356;-58
2023/12/21 11:51:31;;;;;;;24.02;9.15;;;21.50;19.80;;;;;;5016876;28;20037;-58
2023/12/21 11:54:06;;;;;;;14.68;7.82;;;21.90;20.40;;;;;;5035137;28;20441;-58
2023/12/21 11:56:36;;;;;;;38.00;9.90;;;22.30;18.90;;;;;;5034937;28;20057;-58
2023/12/21 11:59:03;;;;;;;20.97;10.33;;;22.60;19.00;;;;;;5035456;28;20028;-58
2023/12/21 12:01:31;;;;;;;24.73;9.13;;;22.40;19.90;;;;;;5034534;28;20060;-58
2023/12/21 12:03:57;;;;;;;24.77;10.13;;;21.80;20.10;;;;;;5033196;28;20033;-58
2023/12/21 12:06:25;;;;;;;24.20;8.98;;;22.10;19.40;;;;;;5034644;28;20064;-58
2023/12/21 12:08:51;;;;;;;20.42;7.32;;;20.70;20.30;;;;;;5034036;28;20032;-58
2023/12/21 12:11:17;;;;;;;10.25;4.72;;;20.70;20.20;;;;;;5034868;28;20030;-58
2023/12/21 12:13:43;;;;;;;17.08;7.47;;;20.90;20.00;;;;;;5035137;28;20108;-58
2023/12/21 12:16:10;;;;;;;12.65;6.35;;;20.70;19.90;;;;;;5034796;28;20112;-58
2023/12/21 12:18:36;;;;;;;13.38;5.15;;;20.70;20.20;;;;;;5035318;28;20029;-58
2023/12/21 12:21:03;;;;;;;8.55;4.75;;;21.40;20.00;;;;;;5025983;28;20030;-58
2023/12/21 12:23:29;;;;;;;7.68;4.32;;;21.80;18.80;;;;;;5010783;28;20482;-58
2023/12/21 12:25:55;;;;;;;8.88;4.00;;;21.60;18.90;;;;;;5006907;28;20049;-58
2023/12/21 12:28:23;;;;;;;29.67;6.53;;;21.90;18.40;;;;;;5015232;28;20030;-58